createdAt,value
2023-06-04T00:11:23.346Z,14.00
2023-06-04T00:31:23.241Z,13.86
2023-06-04T00:51:23.236Z,13.72
2023-06-04T01:11:23.241Z,13.27
2023-06-04T01:31:23.235Z,13.03
2023-06-04T01:51:23.282Z,13.01
2023-06-04T02:11:23.124Z,12.99
2023-06-04T02:31:23.134Z,12.86
2023-06-04T02:51:23.131Z,12.77
2023-06-04T03:11:23.188Z,12.37
2023-06-04T03:31:23.147Z,12.29
2023-06-04T03:51:23.044Z,12.45
2023-06-04T04:11:23.029Z,12.71
2023-06-04T04:31:23.016Z,12.82
2023-06-04T04:51:23.016Z,13.00
2023-06-04T05:11:23.061Z,13.95
2023-06-04T05:31:22.960Z,14.19
2023-06-04T05:51:22.931Z,14.42
2023-06-04T06:11:22.902Z,14.74
2023-06-04T06:31:22.945Z,15.03
2023-06-04T06:51:22.919Z,16.35
2023-06-04T07:11:22.826Z,18.03
2023-06-04T07:31:22.871Z,19.07
2023-06-04T07:51:22.904Z,19.81
2023-06-04T08:11:22.813Z,20.35
2023-06-04T08:31:22.704Z,21.23
2023-06-04T08:51:22.700Z,21.85
2023-06-04T09:11:22.680Z,22.26
2023-06-04T09:31:22.675Z,22.64
2023-06-04T09:51:22.562Z,23.08
2023-06-04T10:11:22.663Z,22.94
2023-06-04T10:31:22.575Z,22.94
2023-06-04T10:51:22.463Z,23.03
2023-06-04T11:11:22.480Z,23.25
2023-06-04T11:31:22.476Z,23.00
2023-06-04T11:51:22.460Z,23.61
2023-06-04T12:11:22.405Z,24.09
2023-06-04T12:31:22.402Z,24.04
2023-06-04T12:51:22.310Z,23.76
2023-06-04T13:11:22.313Z,24.02
2023-06-04T13:31:22.216Z,23.89
2023-06-04T13:51:22.232Z,23.09
2023-06-04T14:11:22.239Z,22.74
2023-06-04T14:31:22.149Z,22.60
2023-06-04T14:51:22.160Z,22.13
2023-06-04T15:31:22.076Z,21.99
2023-06-04T15:51:22.252Z,21.84
2023-06-04T16:11:22.009Z,21.65
2023-06-04T16:31:22.004Z,21.42
2023-06-04T16:51:22.001Z,21.31
2023-06-04T17:11:21.903Z,21.21
2023-06-04T17:31:21.951Z,20.83
2023-06-04T17:51:21.931Z,20.48
2023-06-04T18:11:21.790Z,20.11
2023-06-04T18:31:21.783Z,19.81
2023-06-04T18:51:21.787Z,19.38
2023-06-04T19:11:21.811Z,19.07
2023-06-04T19:31:21.879Z,18.77
2023-06-04T19:51:21.753Z,18.45
2023-06-04T20:11:21.839Z,18.21
2023-06-04T20:31:21.646Z,17.89
2023-06-04T20:51:21.822Z,17.77
2023-06-04T21:11:21.649Z,17.65
2023-06-04T21:31:21.536Z,17.56
2023-06-04T21:51:21.536Z,17.41
2023-06-04T22:11:21.529Z,17.16
2023-06-04T22:31:21.533Z,17.05
2023-06-04T22:51:21.501Z,16.94
2023-06-04T23:11:21.497Z,16.80
2023-06-04T23:31:21.397Z,16.68
2023-06-04T23:51:21.387Z,16.65
